Date,TemperatureHighF,TemperatureAvgF,TemperatureLowF,DewpointHighF,DewpointAvgF,DewpointLowF,HumidityHigh,HumidityAvg,HumidityLow,PressureMaxIn,PressureMinIn,WindSpeedMaxMPH,WindSpeedAvgMPH,GustSpeedMaxMPH,PrecipitationSumIn
2013-1-1,20.0,13.7,8.0,12.0,7.4,4.0,84,76,61,30.28,30.17,6,2,15,0.00
2013-1-2,32.0,18.9,9.0,21.0,11.7,3.0,83,74,59,30.25,30.13,7,3,15,0.00
2013-1-3,28.0,23.5,14.0,25.0,19.0,9.0,91,83,68,30.32,30.13,8,4,18,0.00
2013-1-4,34.0,23.1,12.0,24.0,17.6,8.0,87,80,65,30.32,30.20,12,5,22,0.00
2013-1-5,35.0,28.8,20.0,32.0,26.1,18.0,95,90,78,30.28,29.97,7,3,17,0.01
2013-1-6,34.0,24.7,17.0,32.0,21.3,14.0,93,87,76,30.37,29.96,9,4,17,0.01
2013-1-7,40.0,27.3,15.0,28.0,22.2,12.0,92,82,62,30.36,30.13,8,4,21,0.00
2013-1-8,44.0,33.5,25.0,33.0,28.0,23.0,92,81,63,30.17,30.05,7,3,17,0.00
2013-1-9,46.0,36.8,28.0,34.0,28.3,23.0,88,73,43,30.50,30.03,11,5,20,0.00
2013-1-10,43.0,33.8,24.0,38.0,28.5,20.0,97,82,53,30.51,29.88,11,5,19,0.73
2013-1-11,50.0,46.3,39.0,48.0,45.0,38.0,98,96,92,29.89,29.68,8,5,17,0.92
2013-1-12,49.0,36.4,26.0,47.0,32.9,24.0,92,87,81,30.01,29.70,9,4,17,0.01
2013-1-13,26.0,18.8,11.0,24.0,15.2,7.0,92,86,80,30.29,29.90,7,3,16,0.00
2013-1-14,23.0,15.5,10.0,14.0,10.2,6.0,87,80,64,30.50,30.29,4,1,8,0.01
2013-1-15,28.0,20.8,13.0,20.0,14.9,9.0,89,78,64,30.48,30.15,3,0,9,0.01
2013-1-16,34.0,26.3,17.0,31.0,20.6,12.0,91,79,65,30.16,29.87,9,4,19,0.00
2013-1-17,33.0,25.6,20.0,30.0,18.4,14.0,93,74,58,30.43,30.09,6,2,13,0.00
2013-1-18,41.0,31.1,19.0,33.0,24.2,-99.9,88,78,70,30.46,29.93,12,5,23,0.04
2013-1-19,46.0,39.2,26.0,40.0,32.1,13.0,81,76,59,29.96,29.75,11,6,32,0.02
2013-1-20,25.0,16.1,11.0,14.0,6.5,3.0,74,66,58,30.34,29.96,7,3,18,0.01
2013-1-21,12.0,7.7,4.0,8.0,-0.5,-5.0,86,69,55,30.35,30.19,8,4,20,0.00
2013-1-22,12.0,6.0,-1.0,0.0,-2.9,-7.0,79,66,56,30.46,30.34,8,3,16,0.00
2013-1-23,20.0,14.3,10.0,13.0,7.5,0.0,84,74,62,30.43,30.17,9,3,19,0.00
2013-1-24,20.0,13.5,4.0,8.0,3.0,-4.0,72,63,51,30.68,30.40,7,4,17,0.00
2013-1-25,30.0,21.8,17.0,21.0,15.0,7.0,89,75,59,30.41,30.01,7,4,15,0.00
2013-1-26,26.0,17.6,7.0,17.0,9.9,3.0,85,72,55,30.44,30.24,4,1,9,0.00
2013-1-27,35.0,28.1,23.0,33.0,24.3,15.0,97,85,70,30.41,29.91,10,4,18,0.28
2013-1-28,43.0,39.9,35.0,42.0,38.9,34.0,98,97,94,29.96,29.79,6,2,15,0.55
2013-1-29,55.0,50.9,43.0,54.0,49.9,42.0,98,98,98,29.79,29.65,8,5,17,0.02
2013-1-30,36.0,28.1,19.0,35.0,26.3,15.0,98,93,84,29.67,29.25,8,5,16,0.12
2013-1-31,19.0,8.9,2.0,15.0,4.0,-3.0,85,80,77,30.25,29.67,9,6,21,0.01
2013-2-1,14.0,6.1,-1.0,11.0,0.7,-6.0,89,78,70,30.44,30.23,7,4,14,0.00
2013-2-2,23.0,14.1,7.0,21.0,10.5,3.0,93,85,77,30.23,30.07,6,2,16,0.00
2013-2-3,22.0,17.1,9.0,18.0,12.2,-99.9,92,83,69,30.11,30.01,7,2,14,0.02
2013-2-4,27.0,20.0,9.0,24.0,16.8,3.0,93,87,80,30.06,29.88,7,3,14,0.01
2013-2-5,30.0,22.5,8.0,27.0,16.1,-99.9,91,83,70,30.12,29.85,7,2,14,0.01
2013-2-6,38.0,29.3,14.0,32.0,24.7,12.0,92,83,73,30.24,30.09,7,2,15,0.00
2013-2-7,33.0,31.9,28.0,31.0,30.6,26.0,97,95,89,30.11,29.88,6,2,14,0.36
2013-2-8,28.0,22.5,19.0,27.0,20.1,17.0,96,90,85,30.42,30.01,4,2,11,0.01
2013-2-9,32.0,26.9,21.0,28.0,24.2,19.0,94,90,83,30.43,30.09,9,4,16,0.00
2013-2-10,45.0,37.6,30.0,44.0,35.7,27.0,97,93,77,30.09,29.48,12,7,22,0.06
2013-2-11,40.0,31.6,27.0,34.0,25.9,22.0,86,79,75,30.07,29.52,16,9,29,0.01
2013-2-12,30.0,26.2,24.0,24.0,22.0,20.0,91,84,75,30.13,29.93,7,3,15,0.00
2013-2-13,42.0,31.9,23.0,35.0,28.4,22.0,94,87,75,29.94,29.75,5,2,11,0.01
2013-2-14,39.0,34.6,31.0,32.0,30.1,27.0,91,84,69,29.99,29.66,11,4,19,0.01
2013-2-15,31.0,26.2,18.0,29.0,18.7,11.0,91,73,55,30.22,29.99,6,3,16,0.00
2013-2-16,21.0,15.6,10.0,11.0,8.0,5.0,81,71,60,30.24,30.16,7,2,13,0.00
2013-2-17,30.0,19.8,9.0,22.0,11.5,4.0,82,71,56,30.26,29.99,9,3,17,0.00
2013-2-18,49.0,36.1,25.0,45.0,31.6,21.0,96,84,72,30.00,29.45,13,6,27,0.42
2013-2-19,24.0,13.7,8.0,21.0,9.2,3.0,88,82,77,30.27,29.61,15,7,29,0.37
2013-2-20,20.0,12.3,5.0,14.0,7.3,0.0,87,80,75,30.44,30.27,5,2,11,0.00
2013-2-21,28.0,22.0,14.0,25.0,18.9,11.0,94,88,84,30.43,29.98,9,2,17,0.00
2013-2-22,33.0,26.7,23.0,31.0,24.6,21.0,95,92,86,29.99,29.83,9,5,17,0.09
2013-2-23,26.0,22.8,18.0,23.0,18.7,15.0,89,85,78,30.01,29.94,8,4,15,0.01
2013-2-24,35.0,24.1,13.0,25.0,18.7,11.0,92,81,63,30.17,30.01,4,1,8,0.04
2013-2-25,40.0,30.0,20.0,31.0,24.9,17.0,91,81,63,30.18,29.96,5,1,11,0.01
2013-2-26,34.0,32.2,31.0,31.0,29.4,28.0,96,89,78,29.97,29.54,7,3,20,0.01
2013-2-27,32.0,30.7,29.0,30.0,28.9,27.0,96,94,89,29.77,29.57,4,3,11,0.33
2013-2-28,35.0,31.7,27.0,32.0,28.4,22.0,95,88,80,30.11,29.77,7,3,15,0.24
2013-3-1,27.0,24.5,23.0,23.0,20.7,18.0,89,85,80,30.25,30.09,7,4,19,0.01
2013-3-2,27.0,20.0,12.0,18.0,14.4,7.0,85,79,61,30.26,30.21,5,2,13,0.01
2013-3-3,30.0,19.0,10.0,17.0,11.1,7.0,89,73,45,30.22,30.14,3,1,7,0.02
2013-3-4,31.0,25.1,15.0,26.0,20.5,11.0,85,82,74,30.16,30.00,9,3,17,0.01
2013-3-5,35.0,30.2,25.0,32.0,28.2,24.0,96,92,84,30.06,29.83,7,2,17,0.39
2013-3-6,31.0,27.4,24.0,27.0,24.2,22.0,94,88,83,30.35,30.06,6,3,13,0.27
2013-3-7,34.0,27.6,19.0,27.0,22.8,16.0,91,83,67,30.45,30.34,3,1,9,0.09
2013-3-8,37.0,27.1,14.0,29.0,22.8,12.0,94,84,71,30.50,30.32,8,3,14,0.02
2013-3-9,41.0,34.8,28.0,36.0,31.0,24.0,92,86,81,30.32,29.84,9,6,20,0.08
2013-3-10,43.0,40.0,38.0,42.0,38.7,34.0,98,96,82,29.86,29.60,8,2,14,0.87
2013-3-11,41.0,34.5,31.0,40.0,33.4,28.0,98,96,89,29.83,29.58,8,3,17,0.09
2013-3-12,35.0,29.6,26.0,30.0,25.2,20.0,91,84,77,30.07,29.83,11,6,21,0.01
2013-3-13,32.0,26.2,22.0,21.0,18.8,15.0,86,74,51,30.37,30.07,7,3,15,0.00
2013-3-14,33.0,27.9,21.0,31.0,24.1,18.0,94,86,75,30.37,30.11,7,2,12,0.05
2013-3-15,38.0,33.0,28.0,36.0,31.3,26.0,96,93,87,30.11,29.75,4,1,9,0.02
2013-3-16,33.0,30.6,29.0,32.0,27.8,23.0,97,89,77,30.15,29.73,6,2,15,0.01
2013-3-17,35.0,30.1,24.0,28.0,23.7,18.0,85,77,70,30.24,30.00,7,3,17,0.00
2013-3-18,34.0,29.8,25.0,32.0,26.9,19.0,95,89,77,30.00,29.66,12,5,28,0.05
2013-4-1,38.0,32.1,28.0,22.0,21.4,20.0,73,65,47,30.23,30.16,4,1,10,0.00
2013-4-2,44.0,32.5,23.0,24.0,20.3,13.0,83,63,32,30.35,30.22,7,2,14,0.00
2013-4-3,47.0,35.0,24.0,23.0,20.0,16.0,80,57,31,30.47,30.34,6,1,10,0.00
2013-4-4,58.0,42.4,28.0,36.0,25.8,17.0,81,53,33,30.35,29.99,7,2,14,0.00
2013-4-5,52.0,41.8,32.0,36.0,27.2,16.0,84,59,34,30.23,30.03,7,2,13,0.00
2013-4-6,66.0,49.5,34.0,48.0,34.4,21.0,87,58,37,30.13,29.60,15,7,33,0.15
2013-4-7,60.0,48.8,39.0,49.0,41.1,34.0,91,76,52,29.95,29.64,9,3,18,0.15
2013-4-8,67.0,53.4,39.0,57.0,48.3,34.0,97,83,67,29.94,29.54,13,5,29,0.49
2013-4-9,65.0,48.2,41.0,58.0,45.3,38.0,94,90,79,29.95,29.80,8,3,16,0.01
2013-4-10,41.0,39.7,36.0,40.0,38.3,34.0,96,95,93,30.01,29.81,8,3,18,1.02
2013-4-11,48.0,41.8,38.0,47.0,40.4,36.0,97,95,90,29.85,29.58,12,4,23,0.95
2013-4-12,42.0,37.5,35.0,38.0,33.8,32.0,94,87,79,29.88,29.59,11,5,22,0.01
2013-4-13,44.0,38.1,32.0,34.0,31.2,28.0,92,77,60,30.00,29.88,11,5,21,0.00
2013-4-14,72.0,52.3,37.0,53.0,41.8,32.0,87,69,45,30.00,29.61,14,6,26,0.00
2013-4-15,63.0,53.8,43.0,54.0,49.4,39.0,96,86,64,29.99,29.63,10,4,25,0.64
2013-4-16,53.0,44.7,35.0,42.0,37.6,33.0,93,77,57,30.27,29.96,5,2,11,0.26
2013-4-17,47.0,42.6,40.0,46.0,39.4,35.0,97,88,75,30.29,29.82,10,3,18,1.46
2013-4-18,61.0,50.3,38.0,59.0,48.6,33.0,98,95,83,29.82,29.41,14,6,25,2.43
2013-4-19,38.0,35.7,33.0,34.0,30.5,29.0,90,81,75,29.97,29.51,15,10,26,0.03
2013-4-20,45.0,36.4,29.0,31.0,27.4,22.0,92,71,45,30.43,29.96,6,2,13,0.01
2013-4-21,53.0,41.6,31.0,37.0,30.7,25.0,82,66,51,30.53,30.31,13,6,23,0.01
2013-4-22,66.0,52.0,37.0,43.0,38.1,33.0,84,61,38,30.32,30.03,8,5,19,0.00
2013-4-23,54.0,45.0,36.0,49.0,42.0,34.0,95,89,64,30.03,29.90,6,2,13,0.68
2013-4-24,50.0,41.0,33.0,36.0,32.3,29.0,96,73,48,30.14,29.97,8,3,15,0.22
2013-4-25,51.0,43.1,38.0,37.0,32.4,26.0,90,68,39,30.33,30.08,8,4,18,0.03
2013-4-26,65.0,51.3,38.0,47.0,39.3,29.0,81,64,48,30.33,30.23,9,4,22,0.02
2013-4-27,66.0,55.4,43.0,49.0,44.6,40.0,95,70,40,30.29,29.99,7,2,18,0.00
2013-4-28,66.0,57.2,51.0,55.0,51.4,49.0,94,82,63,29.99,29.81,4,0,8,0.00
2013-4-29,73.0,61.5,49.0,58.0,53.2,47.0,94,76,52,29.90,29.72,10,4,20,0.00
2013-4-30,85.0,70.6,59.0,62.0,56.7,53.0,90,65,34,29.90,29.73,9,6,29,0.00
2013-5-1,83.0,72.3,60.0,59.0,54.8,51.0,85,57,33,30.08,29.89,8,3,17,0.00
2013-5-2,66.0,54.4,46.0,55.0,47.4,41.0,94,78,62,30.21,30.07,5,2,13,0.46
2013-5-3,54.0,46.5,40.0,52.0,44.9,38.0,96,94,92,30.12,29.93,5,2,14,0.28
2013-5-4,72.0,58.8,50.0,56.0,51.8,49.0,95,79,55,30.03,29.92,6,2,15,0.01
2013-5-5,76.0,61.4,49.0,54.0,48.2,43.0,96,66,31,30.03,29.93,5,1,15,0.00
2013-5-6,77.0,63.3,52.0,48.0,42.7,32.0,76,51,22,30.02,29.93,4,2,11,0.00
2013-5-14,93.0,83.3,75.0,61.0,55.2,43.0,60,41,18,29.67,29.62,6,3,14,0.00
2013-5-15,83.0,75.4,64.0,59.0,49.0,39.0,55,41,21,29.80,29.61,11,3,23,0.00
2013-5-16,83.0,64.5,57.0,49.0,26.3,-99.9,68,44,22,29.93,29.79,7,2,13,0.00
2013-5-17,79.0,65.2,57.0,59.0,46.6,-99.9,72,58,44,29.99,29.91,6,2,15,0.01
2013-5-18,79.0,68.0,55.0,64.0,58.3,49.0,95,72,55,30.02,29.89,6,2,14,0.01
2013-5-19,89.0,74.5,61.0,67.0,62.1,58.0,92,68,42,29.92,29.69,9,4,19,0.01
2013-5-20,85.0,75.6,64.0,69.0,61.0,56.0,92,63,39,29.76,29.65,9,4,20,0.28
2013-5-21,81.0,70.5,62.0,66.0,60.6,57.0,93,73,46,29.66,29.62,10,4,20,0.28
2013-5-22,71.0,65.3,60.0,63.0,59.4,55.0,95,82,58,29.72,29.59,8,2,15,0.49
2013-5-23,60.0,53.8,43.0,56.0,49.2,37.0,95,85,67,30.28,29.72,7,3,18,0.18
2013-5-24,64.0,50.2,36.0,42.0,37.7,33.0,89,65,37,30.45,30.28,4,1,12,0.01
2013-5-25,57.0,50.7,45.0,43.0,39.4,36.0,82,66,50,30.39,30.28,6,2,13,0.02
2013-5-26,61.0,53.0,43.0,54.0,45.9,37.0,91,77,59,30.29,30.11,8,3,15,0.11
2013-5-27,65.0,59.3,55.0,62.0,57.1,52.0,97,92,87,30.11,29.82,7,4,12,0.04
2013-5-28,76.0,67.7,60.0,71.0,64.7,59.0,98,90,83,29.82,29.65,9,3,21,0.27
2013-5-29,84.0,71.4,61.0,71.0,65.2,60.0,96,82,62,29.92,29.71,7,3,17,0.33
2013-5-30,82.0,72.6,62.0,72.0,66.0,60.0,96,80,62,29.88,29.72,16,6,28,0.60
2013-5-31,73.0,67.1,61.0,68.0,63.7,60.0,97,89,75,29.82,29.66,7,4,17,0.81
2013-6-1,75.0,67.2,62.0,68.0,62.2,-99.9,95,87,74,29.70,29.63,8,4,18,0.08
2013-6-2,63.0,57.1,51.0,59.0,51.9,46.0,95,83,71,30.02,29.70,7,2,13,0.08
2013-6-3,67.0,56.9,46.0,50.0,47.5,45.0,97,73,49,30.11,30.02,4,1,9,0.01
2013-6-4,71.0,61.4,49.0,51.0,47.5,43.0,83,62,44,30.14,30.03,8,2,15,0.01
2013-6-5,67.0,60.0,56.0,59.0,52.1,46.0,85,75,62,30.09,29.90,5,1,10,0.05
2013-6-6,69.0,59.2,53.0,59.0,53.1,48.0,93,81,65,29.93,29.85,7,1,15,0.19
2013-6-7,73.0,61.0,53.0,55.0,49.5,45.0,86,68,40,29.93,29.88,4,2,11,0.01
2013-6-8,75.0,63.9,49.0,49.0,44.0,40.0,78,51,33,29.97,29.91,5,1,10,0.00
2013-6-9,81.0,68.5,56.0,63.0,54.6,42.0,91,63,41,29.97,29.76,9,4,18,0.09
2013-6-10,81.0,69.8,61.0,65.0,62.4,60.0,97,79,56,29.83,29.72,6,1,12,0.09
2013-6-11,86.0,74.4,62.0,68.0,62.4,58.0,89,69,42,29.90,29.75,6,1,12,0.00
2013-6-12,88.0,73.2,64.0,73.0,66.7,63.0,95,81,57,29.86,29.54,8,2,22,2.23
2013-6-13,80.0,69.1,60.0,63.0,59.1,55.0,96,73,47,30.00,29.61,5,2,15,0.97
2013-6-14,77.0,66.0,53.0,61.0,55.4,50.0,88,70,49,30.11,29.97,4,2,11,0.05
2013-6-15,82.0,69.1,60.0,70.0,62.2,53.0,91,80,61,30.02,29.83,15,2,24,0.07
2013-6-16,84.0,74.0,65.0,67.0,63.2,58.0,93,71,43,29.89,29.84,15,2,24,0.06
2013-6-17,87.0,76.9,66.0,64.0,58.3,53.0,81,56,32,29.91,29.81,5,1,12,0.17
2013-6-18,76.0,65.8,56.0,62.0,55.6,49.0,88,71,54,30.04,29.86,6,1,14,0.17
2013-6-19,80.0,66.4,52.0,60.0,53.3,46.0,85,64,45,30.11,30.03,4,2,11,0.00
2013-6-20,87.0,70.2,59.0,65.0,55.6,47.0,72,61,41,30.11,30.04,5,2,10,0.00
2013-6-22,78.0,75.2,69.0,74.0,70.5,66.0,91,85,78,30.09,29.91,6,4,16,0.43
2013-6-23,86.0,72.3,65.0,74.0,67.4,63.0,94,85,68,30.01,29.88,7,2,17,0.28
2013-6-24,83.0,70.5,66.0,73.0,66.9,64.0,96,89,68,30.05,29.85,7,2,17,0.53
2013-6-25,83.0,73.7,66.0,75.0,69.9,64.0,96,88,75,29.93,29.77,7,2,17,0.67
2013-6-26,82.0,73.4,67.0,74.0,69.2,65.0,96,87,72,29.79,29.68,11,2,22,0.07
2013-6-27,82.0,74.3,70.0,69.0,63.6,62.0,93,70,52,29.74,29.67,3,1,10,0.00
2013-6-28,81.0,71.5,63.0,66.0,62.0,59.0,93,73,52,29.70,29.58,5,2,17,0.20
2013-6-29,70.0,64.4,60.0,65.0,61.7,57.0,97,91,77,29.76,29.57,4,1,13,2.54
2013-6-30,79.0,66.8,59.0,64.0,56.1,45.0,90,71,45,29.97,29.75,5,2,14,0.07
2013-7-1,78.0,66.6,54.0,55.0,51.6,48.0,86,61,38,30.05,29.96,5,2,15,0.00
2013-7-2,75.0,64.4,55.0,58.0,52.8,46.0,89,68,38,30.06,30.01,4,1,13,0.00
2013-7-3,68.0,62.3,57.0,63.0,58.7,54.0,94,89,81,30.05,30.00,2,0,8,0.02
2013-7-4,83.0,70.6,59.0,66.0,62.3,58.0,97,77,48,30.08,29.99,5,2,10,0.01
2013-7-5,83.0,73.7,63.0,67.0,62.8,58.0,88,71,46,30.05,29.97,5,2,12,0.00
2013-7-6,83.0,73.1,64.0,68.0,63.7,59.0,91,75,45,30.02,29.93,5,2,10,0.00
2013-7-7,89.0,78.0,68.0,72.0,68.1,65.0,91,73,50,29.97,29.90,5,2,10,0.00
2013-7-8,86.0,77.4,70.0,76.0,71.2,68.0,93,82,68,29.96,29.89,7,3,16,0.30
2013-7-9,84.0,77.8,71.0,78.0,73.7,69.0,94,87,78,29.96,29.82,9,2,17,0.37
2013-7-10,83.0,75.8,65.0,75.0,65.9,-99.9,95,75,52,29.96,29.80,6,1,13,0.01
2013-7-11,82.0,70.8,61.0,62.0,58.2,55.0,89,67,41,30.08,29.96,3,1,10,0.00
2013-7-12,83.0,70.9,58.0,60.0,53.1,47.0,76,56,31,30.13,30.04,3,0,8,0.00
2013-7-13,84.0,72.9,61.0,64.0,59.8,57.0,87,66,44,30.13,30.06,6,2,11,0.00
2013-7-14,87.0,76.8,66.0,71.0,67.0,61.0,90,73,53,30.16,30.10,6,2,11,0.00
2013-7-15,89.0,79.0,69.0,76.0,71.3,66.0,92,78,58,30.22,30.16,5,1,10,0.00
2013-7-16,90.0,81.5,73.0,76.0,73.6,71.0,94,78,59,30.26,30.19,4,1,10,0.00
2013-7-17,92.0,83.1,74.0,77.0,73.0,70.0,86,73,55,30.28,30.13,4,1,9,0.00
2013-7-18,92.0,83.9,75.0,76.0,73.8,71.0,87,73,56,30.14,29.91,6,2,12,0.00
2013-7-19,93.0,83.8,72.0,74.0,71.9,67.0,86,69,50,29.91,29.71,8,4,18,0.01
2013-7-20,87.0,75.0,66.0,69.0,63.7,-99.9,93,71,46,29.89,29.77,4,1,9,0.64
2013-7-21,85.0,72.9,64.0,70.0,66.0,62.0,95,80,57,29.92,29.81,5,2,11,0.64
2013-7-22,86.0,75.4,66.0,71.0,67.4,64.0,95,78,54,29.85,29.70,5,1,13,0.07
2013-7-23,76.0,69.3,60.0,66.0,61.5,56.0,92,77,53,29.94,29.65,6,2,15,0.16
2013-7-24,76.0,64.2,53.0,57.0,54.3,51.0,95,73,48,30.03,29.94,4,1,11,0.00
2013-7-25,78.0,67.9,56.0,61.0,56.4,51.0,87,68,50,30.08,30.00,4,1,9,0.00
2013-7-26,71.0,66.0,60.0,67.0,62.1,56.0,95,87,77,30.01,29.85,6,2,12,0.40
2013-7-27,65.0,58.6,53.0,56.0,51.5,48.0,95,78,56,29.92,29.86,4,2,14,0.19
2013-7-28,70.0,59.4,52.0,53.0,50.5,47.0,94,73,53,30.02,29.87,6,2,14,0.07
2013-7-29,76.0,64.2,52.0,60.0,54.8,49.0,91,73,52,30.14,30.02,5,1,12,0.01
2013-7-30,68.0,62.4,57.0,64.0,59.4,54.0,96,90,83,30.15,30.05,7,2,12,0.06
2013-7-31,77.0,67.7,63.0,67.0,64.1,61.0,98,89,70,30.05,29.93,4,1,8,0.06
2013-8-1,79.0,68.8,60.0,62.0,58.6,55.0,96,73,44,29.98,29.91,3,1,11,0.05
2013-8-2,83.0,72.7,63.0,70.0,64.1,57.0,91,75,59,29.92,29.82,6,2,13,0.09
2013-8-3,79.0,70.1,59.0,62.0,57.0,52.0,87,66,40,30.08,29.92,5,1,11,0.01
2013-8-4,79.0,67.6,55.0,62.0,56.1,51.0,87,69,40,30.17,30.07,4,1,8,0.00
2013-8-5,71.0,64.8,59.0,65.0,59.6,54.0,94,84,72,30.09,29.84,11,2,20,0.27
2013-8-6,84.0,72.8,65.0,73.0,68.7,63.0,97,87,67,29.88,29.79,4,2,11,0.01
2013-8-7,86.0,76.3,67.0,75.0,69.7,64.0,98,82,51,29.91,29.76,5,1,12,0.01
2013-8-8,80.0,69.9,62.0,65.0,61.9,55.0,94,77,53,29.98,29.91,5,1,12,0.00
2013-8-9,80.0,70.6,59.0,67.0,60.6,53.0,91,72,56,30.02,29.95,4,1,10,0.00
2013-8-10,80.0,68.5,57.0,65.0,59.1,55.0,93,74,50,30.11,30.02,3,0,8,0.00
2013-8-11,81.0,69.2,57.0,66.0,60.0,53.0,90,74,55,30.11,30.00,5,1,12,0.00
2013-8-12,82.0,73.3,66.0,70.0,65.4,60.0,89,77,61,30.01,29.83,6,2,11,0.00
2013-8-13,71.0,62.1,55.0,60.0,50.7,-99.9,93,71,43,30.11,29.91,5,2,13,0.00
2013-8-14,74.0,60.8,50.0,55.0,47.4,-99.9,94,70,44,30.21,30.12,4,1,10,0.00
2013-8-15,73.0,57.5,55.0,56.0,41.2,-99.9,84,70,52,30.16,30.10,4,1,9,0.00
2013-8-16,81.0,66.7,55.0,61.0,51.8,-99.9,89,65,40,30.16,30.11,3,0,10,0.00
2013-8-17,81.0,67.4,54.0,61.0,53.4,-99.9,88,64,41,30.21,30.13,3,0,10,0.00
2013-8-18,80.0,68.5,54.0,64.0,56.8,51.0,93,69,46,30.19,30.07,4,1,10,0.00
2013-8-19,82.0,68.2,61.0,66.0,50.6,-99.9,86,71,51,30.09,30.00,4,1,10,0.00
2013-8-20,84.0,72.9,64.0,68.0,63.3,-99.9,93,76,54,30.08,29.99,6,1,14,0.00
2013-8-21,88.0,75.9,66.0,70.0,66.4,63.0,90,74,50,30.04,29.93,6,2,14,0.00
2013-8-22,76.0,69.6,64.0,68.0,66.5,63.0,96,90,74,30.13,29.95,6,1,14,2.27
2013-8-23,82.0,69.6,59.0,66.0,58.9,52.0,98,73,41,30.15,30.07,5,1,13,0.01
2013-8-24,83.0,70.0,60.0,69.0,60.8,-99.9,93,75,59,30.22,30.14,6,2,13,0.01
2013-8-25,86.0,75.1,64.0,72.0,65.9,58.0,85,74,60,30.22,30.10,5,2,12,0.00
2013-8-26,88.0,77.2,68.0,76.0,69.6,63.0,88,78,63,30.13,29.96,5,2,14,0.00
2013-8-27,91.0,79.0,73.0,76.0,72.1,70.0,91,80,61,29.97,29.85,6,3,13,0.00
2013-8-28,86.0,80.2,69.0,76.0,72.8,67.0,93,79,69,29.98,29.91,3,1,8,0.00
2013-8-29,85.0,74.8,67.0,72.0,68.9,65.0,97,83,62,30.05,29.94,4,1,10,0.00
2013-8-30,93.0,77.3,69.0,78.0,71.2,67.0,95,83,54,29.95,29.72,5,2,19,0.47
2013-8-31,80.0,71.1,67.0,72.0,66.6,-99.9,95,88,77,29.80,29.74,4,1,10,0.51
2013-9-1,82.0,71.1,60.0,75.0,67.3,59.0,97,88,72,29.79,29.70,3,1,8,0.10
2013-9-2,77.0,66.4,57.0,65.0,60.5,53.0,95,82,59,29.97,29.79,6,1,11,0.01
2013-9-3,75.0,62.9,52.0,58.0,54.8,50.0,95,77,53,30.07,29.96,5,1,10,0.01
2013-9-4,82.0,69.2,57.0,65.0,58.8,53.0,89,71,48,30.11,30.02,5,1,10,0.00
2013-9-5,77.0,68.4,59.0,65.0,60.2,52.0,96,76,57,30.20,30.08,7,1,13,0.00
2013-9-6,83.0,69.7,58.0,70.0,60.7,52.0,84,74,60,30.19,29.98,4,1,10,0.00
2013-9-7,84.0,73.1,63.0,73.0,63.9,-99.9,91,76,48,29.98,29.85,5,1,14,0.01
2013-9-8,79.0,72.5,67.0,71.0,67.8,65.0,95,85,74,29.96,29.89,4,1,13,0.17
2013-9-9,91.0,77.4,67.0,78.0,71.4,65.0,97,83,64,29.91,29.78,6,2,11,0.17
2013-9-10,93.0,82.6,74.0,72.0,67.1,63.0,81,61,39,29.96,29.84,8,3,18,0.00
2013-9-11,86.0,77.3,71.0,71.0,67.9,65.0,88,73,61,30.00,29.94,4,1,10,0.00
2013-9-12,78.0,69.0,56.0,67.0,58.1,50.0,94,71,43,30.06,29.93,6,1,17,0.00
2013-9-13,68.0,56.5,47.0,53.0,45.6,42.0,92,69,39,30.17,30.05,5,1,11,0.00
2013-9-14,69.0,56.6,45.0,49.0,44.2,-99.9,92,68,40,30.17,30.01,5,1,11,0.00
2013-9-15,59.0,56.4,54.0,57.0,51.6,45.0,95,85,65,30.15,29.96,4,1,9,0.45
2013-9-16,68.0,56.7,47.0,55.0,49.6,44.0,97,79,52,30.35,30.15,4,2,11,0.01
2013-9-17,68.0,56.8,45.0,57.0,50.8,43.0,94,81,63,30.32,30.09,6,2,12,0.01
2013-9-18,67.0,60.4,59.0,65.0,55.6,53.0,94,84,78,30.09,29.91,3,2,9,0.40
2013-9-19,90.0,76.3,67.0,73.0,68.6,64.0,96,79,52,29.91,29.72,7,3,15,0.39
2013-9-20,70.0,65.4,55.0,66.0,60.2,52.0,96,84,59,29.83,29.71,6,3,17,0.11
2013-9-21,67.0,56.1,48.0,53.0,47.9,-99.9,96,78,53,29.94,29.81,4,1,12,0.01
2013-9-22,71.0,55.2,43.0,51.0,46.8,41.0,93,75,46,30.05,29.94,4,0,8,0.01
2013-9-23,70.0,56.3,45.0,51.0,47.4,43.0,93,75,47,30.10,30.00,5,1,11,0.00
2013-9-24,73.0,58.2,46.0,54.0,49.4,44.0,92,75,45,30.03,29.90,8,2,15,0.00
2013-9-25,75.0,59.8,46.0,54.0,49.7,44.0,96,73,43,29.95,29.89,4,1,14,0.01
2013-9-26,78.0,61.4,49.0,57.0,51.6,47.0,96,74,37,30.05,29.94,6,1,13,0.01
2013-9-27,81.0,65.4,51.0,58.0,52.9,48.0,91,67,37,30.13,30.01,6,2,16,0.01
2013-9-28,81.0,66.5,52.0,66.0,54.8,-99.9,93,69,47,30.04,29.85,8,3,23,0.10
2013-9-29,71.0,58.7,49.0,58.0,48.6,44.0,97,73,38,30.05,29.92,4,1,9,0.17
2013-9-30,75.0,60.9,47.0,53.0,48.0,43.0,94,66,36,29.99,29.84,5,2,14,0.00
2013-10-1,71.0,67.9,66.0,63.0,62.8,62.0,90,84,77,29.95,29.89,2,1,7,0.01
2013-10-2,81.0,69.4,58.0,64.0,54.3,42.0,95,64,32,30.06,29.95,6,1,11,0.01
2013-10-3,77.0,67.9,61.0,70.0,64.9,52.0,98,90,73,29.95,29.80,6,2,15,0.33
2013-10-4,74.0,68.3,64.0,70.0,65.7,61.0,96,91,85,29.96,29.86,4,1,11,0.05
2013-10-5,76.0,68.4,59.0,72.0,66.2,56.0,97,93,83,29.91,29.74,6,2,12,0.09
2013-10-6,59.0,50.6,43.0,57.0,43.3,39.0,92,77,54,29.77,29.69,7,3,14,0.05
2013-10-7,69.0,54.2,43.0,49.0,45.1,41.0,96,75,42,30.07,29.77,6,2,14,0.01
2013-10-8,76.0,60.4,46.0,52.0,46.5,43.0,91,64,35,30.16,30.07,5,1,12,0.00
2013-10-9,73.0,58.8,45.0,50.0,45.6,40.0,93,66,31,30.22,30.11,6,1,11,0.00
2013-10-10,75.0,60.1,47.0,55.0,50.7,45.0,94,73,49,30.16,30.02,4,1,13,0.00
2013-10-11,76.0,63.0,53.0,60.0,54.3,50.0,92,75,51,30.04,29.90,9,3,15,0.00
2013-10-12,70.0,58.9,47.0,62.0,50.8,-99.9,96,78,43,30.18,29.91,8,2,15,0.57
2013-10-13,65.0,51.2,40.0,45.0,38.8,35.0,88,65,35,30.40,30.17,3,1,11,0.07
2013-10-14,64.0,50.0,37.0,47.0,41.8,35.0,94,75,47,30.40,30.11,7,2,14,0.00
2013-10-15,67.0,54.9,48.0,61.0,50.0,41.0,96,84,73,30.11,29.75,6,4,17,0.12
2013-10-16,51.0,48.6,45.0,46.0,44.0,41.0,92,84,79,29.96,29.84,8,4,16,0.03
2013-10-17,56.0,48.2,43.0,46.0,43.1,37.0,96,84,55,29.94,29.83,6,2,14,0.19
2013-10-18,49.0,44.0,39.0,42.0,38.7,36.0,96,82,71,29.98,29.84,9,2,17,0.02
2013-10-19,52.0,44.3,38.0,40.0,35.1,-99.9,85,73,49,29.96,29.79,8,3,19,0.00
2013-10-20,61.0,49.2,37.0,47.0,40.8,34.0,93,74,56,29.88,29.72,7,2,17,0.00
2013-10-21,56.0,43.8,35.0,45.0,32.5,24.0,82,65,47,29.98,29.80,9,3,24,0.00
2013-10-22,36.0,33.3,26.0,35.0,29.9,23.0,95,88,67,30.01,29.94,3,0,9,0.16
2013-10-23,42.0,35.7,28.0,34.0,30.0,27.0,96,81,60,30.06,29.96,7,2,14,0.01
2013-10-24,40.0,36.2,30.0,33.0,27.3,24.0,87,71,53,30.33,30.05,5,2,13,0.01
2013-10-25,51.0,44.1,27.0,32.0,28.7,23.0,86,56,41,30.43,30.07,7,4,17,0.00
2013-10-26,53.0,43.7,35.0,38.0,29.9,-99.9,76,60,46,30.10,29.89,8,3,17,0.00
2013-10-27,54.0,42.5,32.0,33.0,30.2,27.0,82,63,41,30.09,29.98,7,2,14,0.00
2013-10-28,57.0,43.9,33.0,43.0,33.3,-99.9,87,73,57,30.37,30.07,5,1,15,0.00
2013-10-29,55.0,45.2,37.0,45.0,38.7,33.0,95,79,57,30.36,30.14,6,2,10,0.00
2013-10-30,58.0,51.9,48.0,56.0,50.7,45.0,98,96,86,30.14,29.76,6,2,11,0.53
2013-10-31,61.0,55.9,44.0,60.0,54.7,42.0,98,96,91,29.76,29.23,7,3,17,0.84
2013-11-1,46.0,43.9,41.0,44.0,41.3,39.0,95,91,85,29.76,29.41,9,5,19,0.04
2013-11-2,48.0,39.8,34.0,41.0,35.5,-99.9,97,88,71,30.17,29.76,3,1,10,0.03
2013-11-3,51.0,40.8,30.0,38.0,34.4,29.0,97,80,54,30.33,30.16,6,3,14,0.01
2013-11-4,56.0,48.4,40.0,45.0,40.5,35.0,87,75,59,30.26,30.08,10,5,21,0.01
2013-11-5,52.0,50.5,49.0,50.0,47.9,45.0,96,91,82,30.25,29.94,8,3,18,0.11
2013-11-6,56.0,44.0,32.0,55.0,41.8,28.0,97,92,82,30.20,29.80,10,3,18,0.50
2013-11-7,41.0,33.7,29.0,35.0,29.7,25.0,93,85,71,30.28,30.20,6,2,14,0.01
2013-11-8,49.0,38.6,28.0,35.0,30.8,26.0,93,75,49,30.35,29.93,9,4,20,0.01
2013-11-9,56.0,47.4,39.0,42.0,36.7,-99.9,82,69,56,30.15,29.86,12,6,23,0.01
2013-11-10,47.0,39.5,30.0,34.0,31.1,27.0,88,72,53,30.37,30.15,6,2,14,0.00
2013-11-11,46.0,35.1,22.0,37.0,29.6,17.0,94,81,67,30.54,30.10,6,3,16,0.05
2013-11-12,32.0,23.3,18.0,22.0,17.5,14.0,86,78,63,30.75,30.54,5,2,12,0.02
2013-11-13,39.0,28.5,18.0,23.0,18.8,14.0,86,68,42,30.64,30.19,8,4,19,0.01
2013-11-14,49.0,37.8,28.0,30.0,25.5,21.0,78,62,46,30.20,29.95,8,3,18,0.00
2013-11-15,49.0,40.1,32.0,38.0,32.2,27.0,89,74,55,29.99,29.92,6,2,12,0.00
2013-11-16,58.0,49.2,38.0,56.0,46.2,-99.9,97,92,85,29.93,29.57,11,6,28,0.25
2013-11-17,66.0,52.1,40.0,64.0,49.5,36.0,97,91,82,29.76,29.13,17,7,33,0.54
2013-11-18,42.0,36.3,28.0,37.0,30.8,25.0,90,81,64,30.28,29.75,12,4,21,0.01
2013-11-19,39.0,32.4,24.0,30.0,26.5,22.0,92,79,64,30.39,30.28,6,2,13,0.01
2013-11-20,40.0,35.4,29.0,37.0,31.2,26.0,95,85,72,30.29,30.09,9,5,17,0.21
2013-11-21,46.0,42.5,38.0,44.0,40.2,36.0,95,92,87,30.22,30.11,4,1,9,0.21
2013-11-22,40.0,33.6,25.0,38.0,30.1,22.0,94,87,75,30.50,30.22,6,3,15,0.01
2013-11-23,25.0,19.7,13.0,22.0,11.2,-99.9,89,72,56,30.76,30.47,8,3,20,0.01
2013-11-24,26.0,17.8,9.0,12.0,8.2,5.0,85,67,44,30.78,30.42,5,2,12,0.00
2013-11-25,31.0,26.5,19.0,28.0,21.3,13.0,91,81,61,30.42,30.11,8,4,17,0.00
2013-11-26,32.0,27.2,14.0,28.0,21.8,7.0,89,80,67,30.23,30.07,5,2,17,0.00
2013-11-27,27.0,18.3,10.0,15.0,10.7,5.0,81,72,55,30.31,30.22,4,2,15,0.00
2013-11-28,33.0,24.4,17.0,20.0,16.2,12.0,85,71,57,30.54,30.22,6,2,12,0.00
2013-11-29,33.0,25.2,15.0,23.0,17.3,12.0,90,72,54,30.67,30.42,5,2,13,0.00
2013-11-30,48.0,35.5,25.0,34.0,26.9,-99.9,87,74,56,30.42,30.08,6,2,14,0.00
2013-12-1,44.0,34.5,29.0,34.0,29.0,25.0,92,81,61,30.14,30.00,4,1,8,0.00
2013-12-2,40.0,35.8,32.0,34.0,31.4,29.0,95,84,70,30.00,29.74,7,4,14,0.05
2013-12-3,46.0,41.0,35.0,45.0,40.0,34.0,98,97,95,29.74,29.65,8,3,13,0.05
2013-12-4,53.0,46.6,33.0,53.0,45.6,30.0,99,97,92,29.73,29.49,12,4,20,0.05
2013-12-5,33.0,22.7,18.0,31.0,17.6,12.0,94,81,74,30.31,29.72,11,5,22,0.01
2013-12-6,18.0,14.5,10.0,13.0,9.2,4.0,83,79,72,30.61,30.29,4,2,12,0.00
2013-12-7,19.0,10.9,5.0,8.0,3.7,-99.9,86,75,59,30.76,30.61,4,1,10,0.00
2013-12-8,22.0,18.5,11.0,21.0,15.1,6.0,94,86,74,30.66,30.00,6,2,13,0.00
2013-12-9,22.0,11.7,-2.0,21.0,7.8,-6.0,94,84,74,30.29,29.99,10,6,19,0.00
2013-12-10,19.0,10.8,-2.0,13.0,5.4,-6.0,85,78,73,30.37,30.08,13,5,26,0.00
2013-12-11,18.0,9.3,-5.0,13.0,4.7,-10.0,91,81,69,30.63,30.32,5,2,11,0.05
2013-12-12,18.0,9.7,-4.0,12.0,4.3,-9.0,84,78,71,30.61,30.27,8,3,16,0.01
2013-12-13,28.0,21.9,11.0,25.0,17.6,8.0,92,84,77,30.28,30.12,6,1,11,0.00
2013-12-14,29.0,25.0,16.0,28.0,21.9,-99.9,95,91,88,30.13,29.95,6,2,12,0.03
2013-12-15,18.0,11.8,9.0,16.0,7.6,5.0,92,83,78,30.18,29.99,8,4,20,0.01
2013-12-16,17.0,13.6,6.0,15.0,9.9,2.0,93,85,74,30.20,30.07,6,2,10,0.00
2013-12-17,32.0,24.0,16.0,27.0,20.2,13.0,95,86,75,30.16,30.01,9,4,17,0.01
2013-12-18,32.0,23.2,14.0,26.0,17.4,10.0,87,79,58,30.18,29.87,9,4,21,0.01
2013-12-19,36.0,33.0,28.0,33.0,30.3,25.0,97,90,84,29.94,29.80,4,0,8,0.15
2013-12-20,34.0,31.3,26.0,33.0,30.3,25.0,97,96,95,29.84,29.75,3,1,9,0.30
2013-12-21,33.0,28.6,26.0,32.0,26.4,-99.9,97,95,95,29.89,29.64,4,2,12,0.01
2013-12-22,33.0,27.3,22.0,32.0,25.6,19.0,96,93,90,30.17,29.62,4,2,10,0.02
2013-12-23,21.0,5.8,-3.0,19.0,2.5,-7.0,92,85,81,30.54,30.16,8,4,14,0.01
2013-12-24,17.0,3.5,-6.0,14.0,-0.4,-10.0,89,84,79,30.66,30.40,6,2,12,0.00
2013-12-25,25.0,22.0,17.0,23.0,19.6,13.0,94,90,84,30.41,30.15,8,4,16,0.00
2013-12-26,33.0,24.8,12.0,30.0,21.5,9.0,90,87,83,30.32,30.16,6,3,14,0.00
2013-12-27,38.0,31.5,21.0,32.0,27.8,19.0,93,86,80,30.32,30.12,6,3,15,0.03
2013-12-28,42.0,36.9,32.0,36.0,31.2,-99.9,92,82,76,30.13,29.83,6,3,14,0.04
2013-12-29,35.0,24.2,9.0,31.0,20.7,3.0,94,86,79,30.25,29.78,6,4,16,0.01
2013-12-30,8.0,3.7,-3.0,3.0,-1.1,-8.0,87,80,74,30.39,30.24,5,1,10,0.00
2013-12-31,10.0,6.3,0.0,7.0,3.2,-3.0,88,86,83,30.43,30.27,4,1,10,0.00
2014-1-1,20.0,14.1,10.0,18.0,11.4,7.0,90,89,86,30.34,30.23,6,3,14,0.00
2014-1-2,13.0,8.0,-3.0,8.0,4.1,-6.0,88,84,77,30.49,30.20,8,4,18,0.00